Usman', Russia
Current Conditions -  °F | °C
As of 9:30 AM on Sunday 26 Oct 2014 (Local Time) from UUOO Reporting Station
Clear Clear  
Wind Chill: 25°   Ceiling: Unl
Heat Index: 25°   Visibility: 6mi
Dew Point: 14°   Wind: 2mph
Humidity: 64%   Direction: NA
Pressure: 30.71"   Gusts: NA
Location:  52.04°N, 39.42°E
Report Text: UUOO 260630Z VRB01MPS CAVOK M04/M10 Q1040 NOSIG RMK 12090070
Loading
Personal Weather Stations






























Interactive Weather Map
Tropical Storm Tracking
New forecast layout! Learn more

10-Day Weather Forecast

Advertisements
Track Severe Weather on mobile